sensor_id;sensor_type;location;lat;lon;timestamp;P1;durP1;ratioP1;P2;durP2;ratioP2
68025;SDS011;54819;48.030;14.710;2022-11-20T00:01:21;62.10;;;17.90;;
68025;SDS011;54819;48.030;14.710;2022-11-20T00:03:51;46.40;;;14.70;;
68025;SDS011;54819;48.030;14.710;2022-11-20T00:06:20;49.80;;;16.50;;
68025;SDS011;54819;48.030;14.710;2022-11-20T00:08:48;40.80;;;13.40;;
68025;SDS011;54819;48.030;14.710;2022-11-20T00:11:21;55.70;;;17.70;;
68025;SDS011;54819;48.030;14.710;2022-11-20T00:13:52;48.30;;;15.50;;
68025;SDS011;54819;48.030;14.710;2022-11-20T00:16:23;45.20;;;15.30;;
68025;SDS011;54819;48.030;14.710;2022-11-20T00:18:51;47.60;;;15.60;;
68025;SDS011;54819;48.030;14.710;2022-11-20T00:21:21;46.70;;;14.50;;
68025;SDS011;54819;48.030;14.710;2022-11-20T00:23:52;51.30;;;16.70;;
68025;SDS011;54819;48.030;14.710;2022-11-20T00:26:22;46.90;;;16.20;;
68025;SDS011;54819;48.030;14.710;2022-11-20T00:28:53;44.90;;;15.80;;
68025;SDS011;54819;48.030;14.710;2022-11-20T00:31:22;38.70;;;15.50;;
68025;SDS011;54819;48.030;14.710;2022-11-20T00:33:49;44.80;;;15.80;;
68025;SDS011;54819;48.030;14.710;2022-11-20T00:36:21;45.10;;;15.90;;
68025;SDS011;54819;48.030;14.710;2022-11-20T00:38:54;52.30;;;15.90;;
68025;SDS011;54819;48.030;14.710;2022-11-20T00:41:24;51.50;;;15.80;;
68025;SDS011;54819;48.030;14.710;2022-11-20T00:43:53;51.40;;;17.10;;
68025;SDS011;54819;48.030;14.710;2022-11-20T00:46:23;48.10;;;16.70;;
68025;SDS011;54819;48.030;14.710;2022-11-20T00:48:52;48.50;;;15.70;;
68025;SDS011;54819;48.030;14.710;2022-11-20T00:51:21;48.90;;;17.00;;
68025;SDS011;54819;48.030;14.710;2022-11-20T00:53:49;43.80;;;15.60;;
68025;SDS011;54819;48.030;14.710;2022-11-20T00:56:18;45.10;;;14.70;;
68025;SDS011;54819;48.030;14.710;2022-11-20T00:58:47;42.30;;;15.50;;
68025;SDS011;54819;48.030;14.710;2022-11-20T01:01:20;37.80;;;14.00;;
68025;SDS011;54819;48.030;14.710;2022-11-20T01:03:52;36.80;;;13.30;;
68025;SDS011;54819;48.030;14.710;2022-11-20T01:06:28;51.70;;;15.40;;
68025;SDS011;54819;48.030;14.710;2022-11-20T01:08:59;45.70;;;15.20;;
68025;SDS011;54819;48.030;14.710;2022-11-20T01:11:31;51.20;;;18.40;;
68025;SDS011;54819;48.030;14.710;2022-11-20T01:14:01;52.60;;;18.10;;
68025;SDS011;54819;48.030;14.710;2022-11-20T01:16:32;45.30;;;16.00;;
68025;SDS011;54819;48.030;14.710;2022-11-20T01:19:03;44.80;;;15.30;;
68025;SDS011;54819;48.030;14.710;2022-11-20T01:21:34;49.20;;;17.10;;
68025;SDS011;54819;48.030;14.710;2022-11-20T01:24:05;48.10;;;17.70;;
68025;SDS011;54819;48.030;14.710;2022-11-20T01:26:38;41.50;;;15.00;;
68025;SDS011;54819;48.030;14.710;2022-11-20T01:29:09;40.20;;;14.90;;
68025;SDS011;54819;48.030;14.710;2022-11-20T01:31:41;39.50;;;15.00;;
68025;SDS011;54819;48.030;14.710;2022-11-20T01:34:12;37.90;;;12.70;;
68025;SDS011;54819;48.030;14.710;2022-11-20T01:36:42;41.00;;;14.60;;
68025;SDS011;54819;48.030;14.710;2022-11-20T01:39:21;42.00;;;15.10;;
68025;SDS011;54819;48.030;14.710;2022-11-20T01:41:51;43.90;;;14.30;;
68025;SDS011;54819;48.030;14.710;2022-11-20T01:44:48;47.80;;;17.70;;
68025;SDS011;54819;48.030;14.710;2022-11-20T01:50:10;45.30;;;15.00;;
68025;SDS011;54819;48.030;14.710;2022-11-20T01:52:52;49.90;;;15.00;;
68025;SDS011;54819;48.030;14.710;2022-11-20T01:55:27;51.70;;;17.00;;
68025;SDS011;54819;48.030;14.710;2022-11-20T01:57:58;48.40;;;16.60;;
68025;SDS011;54819;48.030;14.710;2022-11-20T02:00:26;38.70;;;14.10;;
68025;SDS011;54819;48.030;14.710;2022-11-20T02:02:58;41.60;;;15.50;;
68025;SDS011;54819;48.030;14.710;2022-11-20T02:08:05;41.10;;;14.30;;
68025;SDS011;54819;48.030;14.710;2022-11-20T02:10:33;32.50;;;11.90;;
68025;SDS011;54819;48.030;14.710;2022-11-20T02:13:01;46.00;;;17.00;;
68025;SDS011;54819;48.030;14.710;2022-11-20T02:15:48;38.40;;;14.00;;
68025;SDS011;54819;48.030;14.710;2022-11-20T02:20:47;44.20;;;15.00;;
68025;SDS011;54819;48.030;14.710;2022-11-20T02:23:38;47.80;;;15.70;;
68025;SDS011;54819;48.030;14.710;2022-11-20T02:26:12;46.50;;;15.90;;
68025;SDS011;54819;48.030;14.710;2022-11-20T02:28:42;49.30;;;17.60;;
68025;SDS011;54819;48.030;14.710;2022-11-20T02:31:09;51.40;;;17.40;;
68025;SDS011;54819;48.030;14.710;2022-11-20T02:33:35;49.80;;;15.50;;
68025;SDS011;54819;48.030;14.710;2022-11-20T02:36:03;59.10;;;18.40;;
68025;SDS011;54819;48.030;14.710;2022-11-20T02:38:30;45.00;;;14.60;;
68025;SDS011;54819;48.030;14.710;2022-11-20T02:40:56;42.60;;;15.00;;
68025;SDS011;54819;48.030;14.710;2022-11-20T02:43:23;43.90;;;14.80;;
68025;SDS011;54819;48.030;14.710;2022-11-20T02:45:50;46.00;;;16.20;;
68025;SDS011;54819;48.030;14.710;2022-11-20T02:48:17;46.40;;;16.10;;
68025;SDS011;54819;48.030;14.710;2022-11-20T02:50:44;35.60;;;14.30;;
68025;SDS011;54819;48.030;14.710;2022-11-20T02:53:11;48.40;;;15.20;;
68025;SDS011;54819;48.030;14.710;2022-11-20T02:55:38;45.10;;;16.80;;
68025;SDS011;54819;48.030;14.710;2022-11-20T02:58:05;47.70;;;15.10;;
68025;SDS011;54819;48.030;14.710;2022-11-20T03:00:32;50.20;;;17.50;;
68025;SDS011;54819;48.030;14.710;2022-11-20T03:02:59;47.10;;;16.50;;
68025;SDS011;54819;48.030;14.710;2022-11-20T03:05:25;48.00;;;16.40;;
68025;SDS011;54819;48.030;14.710;2022-11-20T03:07:52;49.50;;;16.20;;
68025;SDS011;54819;48.030;14.710;2022-11-20T03:10:19;54.20;;;18.40;;
68025;SDS011;54819;48.030;14.710;2022-11-20T03:12:46;39.30;;;14.80;;
68025;SDS011;54819;48.030;14.710;2022-11-20T03:15:13;40.50;;;14.90;;
68025;SDS011;54819;48.030;14.710;2022-11-20T03:17:39;39.20;;;14.90;;
68025;SDS011;54819;48.030;14.710;2022-11-20T03:20:07;42.50;;;14.50;;
68025;SDS011;54819;48.030;14.710;2022-11-20T03:22:35;47.50;;;13.90;;
68025;SDS011;54819;48.030;14.710;2022-11-20T03:25:02;43.60;;;15.10;;
68025;SDS011;54819;48.030;14.710;2022-11-20T03:27:34;46.90;;;15.80;;
68025;SDS011;54819;48.030;14.710;2022-11-20T03:30:01;47.00;;;17.40;;
68025;SDS011;54819;48.030;14.710;2022-11-20T03:32:29;44.70;;;16.30;;
68025;SDS011;54819;48.030;14.710;2022-11-20T03:34:56;50.60;;;17.00;;
68025;SDS011;54819;48.030;14.710;2022-11-20T03:37:22;48.10;;;17.30;;
68025;SDS011;54819;48.030;14.710;2022-11-20T03:39:49;52.70;;;17.20;;
68025;SDS011;54819;48.030;14.710;2022-11-20T03:42:16;51.60;;;17.20;;
68025;SDS011;54819;48.030;14.710;2022-11-20T03:45:02;45.30;;;15.80;;
68025;SDS011;54819;48.030;14.710;2022-11-20T03:47:29;50.30;;;16.70;;
68025;SDS011;54819;48.030;14.710;2022-11-20T03:49:56;46.10;;;15.40;;
68025;SDS011;54819;48.030;14.710;2022-11-20T03:52:22;42.40;;;16.00;;
68025;SDS011;54819;48.030;14.710;2022-11-20T03:54:49;44.80;;;16.80;;
68025;SDS011;54819;48.030;14.710;2022-11-20T03:57:16;46.10;;;15.80;;
68025;SDS011;54819;48.030;14.710;2022-11-20T03:59:43;38.80;;;14.40;;
68025;SDS011;54819;48.030;14.710;2022-11-20T04:02:10;41.20;;;15.30;;
68025;SDS011;54819;48.030;14.710;2022-11-20T04:04:36;38.40;;;14.70;;
68025;SDS011;54819;48.030;14.710;2022-11-20T04:07:03;40.60;;;14.90;;
68025;SDS011;54819;48.030;14.710;2022-11-20T04:09:30;38.80;;;15.50;;
68025;SDS011;54819;48.030;14.710;2022-11-20T04:11:57;50.90;;;16.70;;
68025;SDS011;54819;48.030;14.710;2022-11-20T04:14:24;50.10;;;16.30;;
68025;SDS011;54819;48.030;14.710;2022-11-20T04:16:51;44.40;;;16.10;;
68025;SDS011;54819;48.030;14.710;2022-11-20T04:19:18;45.40;;;16.00;;
68025;SDS011;54819;48.030;14.710;2022-11-20T04:21:45;51.80;;;18.60;;
68025;SDS011;54819;48.030;14.710;2022-11-20T04:24:12;47.20;;;16.20;;
68025;SDS011;54819;48.030;14.710;2022-11-20T04:26:39;39.20;;;14.50;;
68025;SDS011;54819;48.030;14.710;2022-11-20T04:29:09;38.60;;;13.80;;
68025;SDS011;54819;48.030;14.710;2022-11-20T04:31:37;36.70;;;13.80;;
68025;SDS011;54819;48.030;14.710;2022-11-20T04:34:06;36.50;;;13.50;;
68025;SDS011;54819;48.030;14.710;2022-11-20T04:36:34;34.50;;;13.10;;
68025;SDS011;54819;48.030;14.710;2022-11-20T04:39:03;40.30;;;13.80;;
68025;SDS011;54819;48.030;14.710;2022-11-20T04:41:35;34.50;;;13.50;;
68025;SDS011;54819;48.030;14.710;2022-11-20T04:44:04;42.00;;;14.40;;
68025;SDS011;54819;48.030;14.710;2022-11-20T04:46:38;48.10;;;15.60;;
68025;SDS011;54819;48.030;14.710;2022-11-20T04:49:06;48.20;;;16.40;;
68025;SDS011;54819;48.030;14.710;2022-11-20T04:54:02;46.80;;;14.90;;
68025;SDS011;54819;48.030;14.710;2022-11-20T04:56:29;43.30;;;16.00;;
68025;SDS011;54819;48.030;14.710;2022-11-20T04:59:00;48.00;;;16.20;;
68025;SDS011;54819;48.030;14.710;2022-11-20T05:01:28;37.80;;;15.20;;
68025;SDS011;54819;48.030;14.710;2022-11-20T05:03:55;35.40;;;13.60;;
68025;SDS011;54819;48.030;14.710;2022-11-20T05:06:22;36.70;;;13.30;;
68025;SDS011;54819;48.030;14.710;2022-11-20T05:08:49;34.10;;;12.70;;
68025;SDS011;54819;48.030;14.710;2022-11-20T05:11:19;30.40;;;12.80;;
68025;SDS011;54819;48.030;14.710;2022-11-20T05:13:48;30.10;;;11.70;;
68025;SDS011;54819;48.030;14.710;2022-11-20T05:16:18;31.50;;;11.90;;
68025;SDS011;54819;48.030;14.710;2022-11-20T05:18:48;33.50;;;12.90;;
68025;SDS011;54819;48.030;14.710;2022-11-20T05:21:16;33.40;;;13.60;;
68025;SDS011;54819;48.030;14.710;2022-11-20T05:23:44;36.40;;;15.00;;
68025;SDS011;54819;48.030;14.710;2022-11-20T05:26:14;39.70;;;14.80;;
68025;SDS011;54819;48.030;14.710;2022-11-20T05:28:44;42.40;;;15.50;;
68025;SDS011;54819;48.030;14.710;2022-11-20T05:31:17;35.80;;;14.20;;
68025;SDS011;54819;48.030;14.710;2022-11-20T05:33:52;42.80;;;15.00;;
68025;SDS011;54819;48.030;14.710;2022-11-20T05:36:19;41.80;;;15.50;;
68025;SDS011;54819;48.030;14.710;2022-11-20T05:38:46;36.50;;;14.00;;
68025;SDS011;54819;48.030;14.710;2022-11-20T05:41:18;36.30;;;13.20;;
68025;SDS011;54819;48.030;14.710;2022-11-20T05:43:48;33.10;;;13.10;;
68025;SDS011;54819;48.030;14.710;2022-11-20T05:46:19;37.40;;;13.50;;
68025;SDS011;54819;48.030;14.710;2022-11-20T05:48:54;37.00;;;13.60;;
68025;SDS011;54819;48.030;14.710;2022-11-20T05:51:23;37.10;;;13.40;;
68025;SDS011;54819;48.030;14.710;2022-11-20T05:56:20;23.00;;;7.30;;
68025;SDS011;54819;48.030;14.710;2022-11-20T05:58:48;36.80;;;14.00;;
68025;SDS011;54819;48.030;14.710;2022-11-20T06:01:24;44.10;;;15.20;;
68025;SDS011;54819;48.030;14.710;2022-11-20T06:03:53;36.60;;;14.10;;
68025;SDS011;54819;48.030;14.710;2022-11-20T06:06:20;35.50;;;13.90;;
68025;SDS011;54819;48.030;14.710;2022-11-20T06:08:48;37.50;;;15.00;;
68025;SDS011;54819;48.030;14.710;2022-11-20T06:11:15;42.10;;;15.00;;
68025;SDS011;54819;48.030;14.710;2022-11-20T06:13:43;44.10;;;16.00;;
68025;SDS011;54819;48.030;14.710;2022-11-20T06:16:13;41.20;;;15.20;;
68025;SDS011;54819;48.030;14.710;2022-11-20T06:18:41;34.10;;;13.40;;
68025;SDS011;54819;48.030;14.710;2022-11-20T06:23:41;34.10;;;13.90;;
68025;SDS011;54819;48.030;14.710;2022-11-20T06:26:20;36.70;;;14.60;;
68025;SDS011;54819;48.030;14.710;2022-11-20T06:28:49;32.80;;;12.60;;
68025;SDS011;54819;48.030;14.710;2022-11-20T06:31:19;35.20;;;12.70;;
68025;SDS011;54819;48.030;14.710;2022-11-20T06:33:48;33.40;;;13.40;;
68025;SDS011;54819;48.030;14.710;2022-11-20T06:36:17;40.60;;;15.90;;
68025;SDS011;54819;48.030;14.710;2022-11-20T06:38:46;44.50;;;15.20;;
68025;SDS011;54819;48.030;14.710;2022-11-20T06:41:16;45.00;;;16.50;;
68025;SDS011;54819;48.030;14.710;2022-11-20T06:43:45;40.00;;;14.90;;
68025;SDS011;54819;48.030;14.710;2022-11-20T06:46:13;46.00;;;16.30;;
68025;SDS011;54819;48.030;14.710;2022-11-20T06:48:44;44.00;;;15.50;;
68025;SDS011;54819;48.030;14.710;2022-11-20T06:51:12;37.70;;;14.80;;
68025;SDS011;54819;48.030;14.710;2022-11-20T06:53:40;41.70;;;14.60;;
68025;SDS011;54819;48.030;14.710;2022-11-20T06:56:07;36.80;;;14.00;;
68025;SDS011;54819;48.030;14.710;2022-11-20T06:58:35;35.40;;;13.60;;
68025;SDS011;54819;48.030;14.710;2022-11-20T07:03:38;41.30;;;15.80;;
68025;SDS011;54819;48.030;14.710;2022-11-20T07:06:06;32.00;;;12.00;;
68025;SDS011;54819;48.030;14.710;2022-11-20T07:08:34;37.10;;;13.20;;
68025;SDS011;54819;48.030;14.710;2022-11-20T07:11:02;45.00;;;15.10;;
68025;SDS011;54819;48.030;14.710;2022-11-20T07:13:32;41.60;;;15.60;;
68025;SDS011;54819;48.030;14.710;2022-11-20T07:16:04;41.00;;;15.30;;
68025;SDS011;54819;48.030;14.710;2022-11-20T07:18:33;39.40;;;13.90;;
68025;SDS011;54819;48.030;14.710;2022-11-20T07:21:02;42.50;;;16.30;;
68025;SDS011;54819;48.030;14.710;2022-11-20T07:23:30;36.40;;;14.70;;
68025;SDS011;54819;48.030;14.710;2022-11-20T07:25:58;44.20;;;17.00;;
68025;SDS011;54819;48.030;14.710;2022-11-20T07:28:29;40.00;;;15.90;;
68025;SDS011;54819;48.030;14.710;2022-11-20T07:30:56;42.00;;;16.00;;
68025;SDS011;54819;48.030;14.710;2022-11-20T07:33:23;44.80;;;16.90;;
68025;SDS011;54819;48.030;14.710;2022-11-20T07:35:50;49.60;;;20.00;;
68025;SDS011;54819;48.030;14.710;2022-11-20T07:38:17;42.70;;;18.60;;
68025;SDS011;54819;48.030;14.710;2022-11-20T07:40:43;43.70;;;18.20;;
68025;SDS011;54819;48.030;14.710;2022-11-20T07:43:10;38.90;;;18.60;;
68025;SDS011;54819;48.030;14.710;2022-11-20T07:45:37;43.60;;;18.70;;
68025;SDS011;54819;48.030;14.710;2022-11-20T07:48:04;45.30;;;19.10;;
68025;SDS011;54819;48.030;14.710;2022-11-20T07:50:31;44.00;;;19.00;;
68025;SDS011;54819;48.030;14.710;2022-11-20T07:53:03;42.80;;;17.70;;
68025;SDS011;54819;48.030;14.710;2022-11-20T07:55:31;35.40;;;15.50;;
68025;SDS011;54819;48.030;14.710;2022-11-20T08:00:26;38.30;;;15.50;;
68025;SDS011;54819;48.030;14.710;2022-11-20T08:02:53;51.00;;;19.30;;
68025;SDS011;54819;48.030;14.710;2022-11-20T08:05:20;56.90;;;21.30;;
68025;SDS011;54819;48.030;14.710;2022-11-20T08:07:48;47.20;;;18.50;;
68025;SDS011;54819;48.030;14.710;2022-11-20T08:10:15;39.90;;;17.10;;
68025;SDS011;54819;48.030;14.710;2022-11-20T08:12:50;33.70;;;16.20;;
68025;SDS011;54819;48.030;14.710;2022-11-20T08:15:37;42.80;;;17.30;;
68025;SDS011;54819;48.030;14.710;2022-11-20T08:18:08;45.90;;;17.30;;
68025;SDS011;54819;48.030;14.710;2022-11-20T08:20:57;47.10;;;18.60;;
68025;SDS011;54819;48.030;14.710;2022-11-20T08:23:24;43.00;;;18.10;;
68025;SDS011;54819;48.030;14.710;2022-11-20T08:25:51;38.70;;;14.80;;
68025;SDS011;54819;48.030;14.710;2022-11-20T08:28:18;38.50;;;15.00;;
68025;SDS011;54819;48.030;14.710;2022-11-20T08:30:49;40.10;;;14.20;;
68025;SDS011;54819;48.030;14.710;2022-11-20T08:33:17;38.70;;;15.80;;
68025;SDS011;54819;48.030;14.710;2022-11-20T08:35:45;33.40;;;13.90;;
68025;SDS011;54819;48.030;14.710;2022-11-20T08:38:12;23.50;;;10.30;;
68025;SDS011;54819;48.030;14.710;2022-11-20T08:40:39;24.10;;;9.90;;
68025;SDS011;54819;48.030;14.710;2022-11-20T08:43:06;22.40;;;10.30;;
68025;SDS011;54819;48.030;14.710;2022-11-20T08:45:33;27.40;;;11.40;;
68025;SDS011;54819;48.030;14.710;2022-11-20T08:50:30;24.30;;;11.40;;
68025;SDS011;54819;48.030;14.710;2022-11-20T08:53:03;32.00;;;11.90;;
68025;SDS011;54819;48.030;14.710;2022-11-20T08:55:32;30.80;;;12.30;;
68025;SDS011;54819;48.030;14.710;2022-11-20T08:58:03;27.90;;;11.90;;
68025;SDS011;54819;48.030;14.710;2022-11-20T09:00:31;27.30;;;11.60;;
68025;SDS011;54819;48.030;14.710;2022-11-20T09:05:27;27.60;;;10.10;;
68025;SDS011;54819;48.030;14.710;2022-11-20T09:07:57;28.80;;;12.90;;
68025;SDS011;54819;48.030;14.710;2022-11-20T09:10:26;31.40;;;14.00;;
68025;SDS011;54819;48.030;14.710;2022-11-20T09:12:54;26.50;;;11.20;;
68025;SDS011;54819;48.030;14.710;2022-11-20T09:20:18;30.60;;;13.50;;
68025;SDS011;54819;48.030;14.710;2022-11-20T09:22:45;34.80;;;14.20;;
68025;SDS011;54819;48.030;14.710;2022-11-20T09:25:12;34.30;;;13.30;;
68025;SDS011;54819;48.030;14.710;2022-11-20T09:27:39;41.70;;;16.80;;
68025;SDS011;54819;48.030;14.710;2022-11-20T09:30:08;38.00;;;15.70;;
68025;SDS011;54819;48.030;14.710;2022-11-20T09:32:35;31.00;;;13.80;;
68025;SDS011;54819;48.030;14.710;2022-11-20T09:35:03;40.10;;;15.80;;
68025;SDS011;54819;48.030;14.710;2022-11-20T09:37:30;36.00;;;16.00;;
68025;SDS011;54819;48.030;14.710;2022-11-20T09:39:57;43.90;;;16.20;;
68025;SDS011;54819;48.030;14.710;2022-11-20T09:42:47;38.00;;;14.80;;
68025;SDS011;54819;48.030;14.710;2022-11-20T09:50:46;33.10;;;14.20;;
68025;SDS011;54819;48.030;14.710;2022-11-20T09:53:30;32.70;;;14.10;;
68025;SDS011;54819;48.030;14.710;2022-11-20T09:56:03;39.10;;;15.70;;
68025;SDS011;54819;48.030;14.710;2022-11-20T10:01:10;34.40;;;14.00;;
68025;SDS011;54819;48.030;14.710;2022-11-20T10:06:36;36.40;;;13.00;;
68025;SDS011;54819;48.030;14.710;2022-11-20T10:29:41;37.40;;;14.10;;
68025;SDS011;54819;48.030;14.710;2022-11-20T10:32:17;33.70;;;13.20;;
68025;SDS011;54819;48.030;14.710;2022-11-20T10:34:51;40.40;;;15.20;;
68025;SDS011;54819;48.030;14.710;2022-11-20T10:37:27;34.80;;;14.20;;
68025;SDS011;54819;48.030;14.710;2022-11-20T10:40:25;33.50;;;13.20;;
68025;SDS011;54819;48.030;14.710;2022-11-20T10:43:10;34.40;;;13.70;;
68025;SDS011;54819;48.030;14.710;2022-11-20T10:45:49;38.40;;;13.80;;
68025;SDS011;54819;48.030;14.710;2022-11-20T10:48:27;35.30;;;13.70;;
68025;SDS011;54819;48.030;14.710;2022-11-20T10:54:06;29.70;;;12.90;;
68025;SDS011;54819;48.030;14.710;2022-11-20T10:56:49;36.10;;;13.30;;
68025;SDS011;54819;48.030;14.710;2022-11-20T10:59:41;27.30;;;12.50;;
68025;SDS011;54819;48.030;14.710;2022-11-20T11:05:10;30.20;;;10.70;;
68025;SDS011;54819;48.030;14.710;2022-11-20T11:07:45;21.10;;;9.20;;
68025;SDS011;54819;48.030;14.710;2022-11-20T11:10:35;23.80;;;9.80;;
68025;SDS011;54819;48.030;14.710;2022-11-20T11:13:19;17.70;;;7.20;;
68025;SDS011;54819;48.030;14.710;2022-11-20T11:15:48;11.90;;;5.30;;
68025;SDS011;54819;48.030;14.710;2022-11-20T11:18:32;16.70;;;7.40;;
68025;SDS011;54819;48.030;14.710;2022-11-20T11:21:03;22.30;;;9.60;;
68025;SDS011;54819;48.030;14.710;2022-11-20T11:23:35;31.00;;;12.70;;
68025;SDS011;54819;48.030;14.710;2022-11-20T11:26:06;41.90;;;15.50;;
68025;SDS011;54819;48.030;14.710;2022-11-20T11:28:57;38.40;;;15.10;;
68025;SDS011;54819;48.030;14.710;2022-11-20T11:31:33;39.50;;;15.60;;
68025;SDS011;54819;48.030;14.710;2022-11-20T11:34:05;31.10;;;13.60;;
68025;SDS011;54819;48.030;14.710;2022-11-20T11:36:56;23.60;;;9.70;;
68025;SDS011;54819;48.030;14.710;2022-11-20T11:39:27;28.70;;;11.00;;
68025;SDS011;54819;48.030;14.710;2022-11-20T11:41:56;21.60;;;10.00;;
68025;SDS011;54819;48.030;14.710;2022-11-20T11:44:28;26.10;;;11.40;;
68025;SDS011;54819;48.030;14.710;2022-11-20T11:47:30;30.20;;;11.40;;
68025;SDS011;54819;48.030;14.710;2022-11-20T11:50:25;17.70;;;8.50;;
68025;SDS011;54819;48.030;14.710;2022-11-20T11:53:14;19.10;;;8.10;;
68025;SDS011;54819;48.030;14.710;2022-11-20T11:58:45;17.40;;;7.10;;
68025;SDS011;54819;48.030;14.710;2022-11-20T12:07:01;22.00;;;10.30;;
68025;SDS011;54819;48.030;14.710;2022-11-20T12:09:56;22.40;;;10.20;;
68025;SDS011;54819;48.030;14.710;2022-11-20T12:12:31;22.90;;;9.90;;
68025;SDS011;54819;48.030;14.710;2022-11-20T12:15:04;23.00;;;9.70;;
68025;SDS011;54819;48.030;14.710;2022-11-20T12:17:36;25.60;;;10.40;;
68025;SDS011;54819;48.030;14.710;2022-11-20T12:20:11;26.20;;;11.00;;
68025;SDS011;54819;48.030;14.710;2022-11-20T12:25:22;27.60;;;12.30;;
68025;SDS011;54819;48.030;14.710;2022-11-20T12:30:48;26.20;;;10.50;;
68025;SDS011;54819;48.030;14.710;2022-11-20T12:36:49;21.70;;;9.40;;
68025;SDS011;54819;48.030;14.710;2022-11-20T12:39:34;21.00;;;8.10;;
68025;SDS011;54819;48.030;14.710;2022-11-20T13:19:53;22.60;;;8.40;;
68025;SDS011;54819;48.030;14.710;2022-11-20T13:22:42;20.60;;;8.70;;
68025;SDS011;54819;48.030;14.710;2022-11-20T13:25:23;20.90;;;9.70;;
68025;SDS011;54819;48.030;14.710;2022-11-20T13:27:51;18.40;;;9.30;;
68025;SDS011;54819;48.030;14.710;2022-11-20T13:30:23;22.00;;;8.80;;
68025;SDS011;54819;48.030;14.710;2022-11-20T13:32:52;22.60;;;9.40;;
68025;SDS011;54819;48.030;14.710;2022-11-20T13:35:27;19.90;;;9.40;;
68025;SDS011;54819;48.030;14.710;2022-11-20T13:38:03;26.40;;;9.90;;
68025;SDS011;54819;48.030;14.710;2022-11-20T13:40:51;21.50;;;9.40;;
68025;SDS011;54819;48.030;14.710;2022-11-20T13:43:36;24.60;;;9.80;;
68025;SDS011;54819;48.030;14.710;2022-11-20T13:46:08;21.10;;;10.00;;
68025;SDS011;54819;48.030;14.710;2022-11-20T13:48:46;21.90;;;9.70;;
68025;SDS011;54819;48.030;14.710;2022-11-20T14:00:22;21.60;;;9.90;;
68025;SDS011;54819;48.030;14.710;2022-11-20T14:05:56;27.00;;;10.80;;
68025;SDS011;54819;48.030;14.710;2022-11-20T14:08:37;21.10;;;9.10;;
68025;SDS011;54819;48.030;14.710;2022-11-20T14:14:14;24.20;;;10.20;;
68025;SDS011;54819;48.030;14.710;2022-11-20T14:16:43;24.70;;;11.50;;
68025;SDS011;54819;48.030;14.710;2022-11-20T14:19:27;21.80;;;9.30;;
68025;SDS011;54819;48.030;14.710;2022-11-20T14:27:42;19.80;;;9.00;;
68025;SDS011;54819;48.030;14.710;2022-11-20T14:30:20;19.00;;;8.90;;
68025;SDS011;54819;48.030;14.710;2022-11-20T14:32:57;20.10;;;8.80;;
68025;SDS011;54819;48.030;14.710;2022-11-20T14:35:29;18.20;;;7.90;;
68025;SDS011;54819;48.030;14.710;2022-11-20T14:38:01;20.30;;;9.50;;
68025;SDS011;54819;48.030;14.710;2022-11-20T14:40:31;25.10;;;9.90;;
68025;SDS011;54819;48.030;14.710;2022-11-20T14:43:35;22.50;;;9.60;;
68025;SDS011;54819;48.030;14.710;2022-11-20T14:46:07;22.40;;;10.30;;
68025;SDS011;54819;48.030;14.710;2022-11-20T14:48:48;19.60;;;8.10;;
68025;SDS011;54819;48.030;14.710;2022-11-20T14:51:32;17.50;;;8.40;;
68025;SDS011;54819;48.030;14.710;2022-11-20T14:57:01;15.60;;;6.50;;
68025;SDS011;54819;48.030;14.710;2022-11-20T14:59:31;16.20;;;7.10;;
68025;SDS011;54819;48.030;14.710;2022-11-20T15:02:03;27.00;;;9.30;;
68025;SDS011;54819;48.030;14.710;2022-11-20T15:04:45;72.40;;;25.00;;
68025;SDS011;54819;48.030;14.710;2022-11-20T15:07:23;24.20;;;10.30;;
68025;SDS011;54819;48.030;14.710;2022-11-20T15:10:03;27.60;;;11.20;;
68025;SDS011;54819;48.030;14.710;2022-11-20T15:12:31;22.20;;;10.70;;
68025;SDS011;54819;48.030;14.710;2022-11-20T15:15:02;22.10;;;10.40;;
68025;SDS011;54819;48.030;14.710;2022-11-20T15:17:32;31.20;;;13.80;;
68025;SDS011;54819;48.030;14.710;2022-11-20T15:20:11;29.70;;;13.90;;
68025;SDS011;54819;48.030;14.710;2022-11-20T15:22:42;28.90;;;11.40;;
68025;SDS011;54819;48.030;14.710;2022-11-20T15:25:13;26.60;;;12.00;;
68025;SDS011;54819;48.030;14.710;2022-11-20T15:27:42;26.80;;;11.40;;
68025;SDS011;54819;48.030;14.710;2022-11-20T15:30:17;23.80;;;11.10;;
68025;SDS011;54819;48.030;14.710;2022-11-20T15:32:46;25.30;;;11.40;;
68025;SDS011;54819;48.030;14.710;2022-11-20T15:35:14;26.00;;;9.70;;
68025;SDS011;54819;48.030;14.710;2022-11-20T15:37:42;25.70;;;10.30;;
68025;SDS011;54819;48.030;14.710;2022-11-20T15:40:10;20.30;;;8.60;;
68025;SDS011;54819;48.030;14.710;2022-11-20T15:45:04;21.40;;;8.80;;
68025;SDS011;54819;48.030;14.710;2022-11-20T15:47:33;18.70;;;8.00;;
68025;SDS011;54819;48.030;14.710;2022-11-20T15:50:01;21.40;;;8.50;;
68025;SDS011;54819;48.030;14.710;2022-11-20T15:52:29;17.20;;;7.80;;
68025;SDS011;54819;48.030;14.710;2022-11-20T15:57:37;13.10;;;6.00;;
68025;SDS011;54819;48.030;14.710;2022-11-20T16:00:04;12.70;;;4.80;;
68025;SDS011;54819;48.030;14.710;2022-11-20T16:02:36;13.60;;;6.30;;
68025;SDS011;54819;48.030;14.710;2022-11-20T16:05:03;9.20;;;4.20;;
68025;SDS011;54819;48.030;14.710;2022-11-20T16:07:36;10.40;;;3.70;;
68025;SDS011;54819;48.030;14.710;2022-11-20T16:10:03;10.20;;;3.60;;
68025;SDS011;54819;48.030;14.710;2022-11-20T16:12:30;9.70;;;3.70;;
68025;SDS011;54819;48.030;14.710;2022-11-20T16:15:16;10.80;;;4.50;;
68025;SDS011;54819;48.030;14.710;2022-11-20T16:18:02;8.10;;;3.40;;
68025;SDS011;54819;48.030;14.710;2022-11-20T16:20:29;11.80;;;3.90;;
68025;SDS011;54819;48.030;14.710;2022-11-20T16:22:56;20.10;;;7.60;;
68025;SDS011;54819;48.030;14.710;2022-11-20T16:25:23;18.60;;;7.10;;
68025;SDS011;54819;48.030;14.710;2022-11-20T16:27:50;14.60;;;7.10;;
68025;SDS011;54819;48.030;14.710;2022-11-20T16:30:16;20.90;;;10.00;;
68025;SDS011;54819;48.030;14.710;2022-11-20T16:32:43;15.40;;;6.20;;
68025;SDS011;54819;48.030;14.710;2022-11-20T16:35:10;18.10;;;6.60;;
68025;SDS011;54819;48.030;14.710;2022-11-20T16:37:38;11.30;;;5.10;;
68025;SDS011;54819;48.030;14.710;2022-11-20T16:40:06;8.80;;;4.30;;
68025;SDS011;54819;48.030;14.710;2022-11-20T16:42:34;14.10;;;4.30;;
68025;SDS011;54819;48.030;14.710;2022-11-20T16:45:03;5.20;;;2.40;;
68025;SDS011;54819;48.030;14.710;2022-11-20T16:47:34;5.80;;;2.00;;
68025;SDS011;54819;48.030;14.710;2022-11-20T16:50:02;5.90;;;2.10;;
68025;SDS011;54819;48.030;14.710;2022-11-20T16:52:31;5.70;;;2.00;;
68025;SDS011;54819;48.030;14.710;2022-11-20T16:54:58;3.80;;;1.80;;
68025;SDS011;54819;48.030;14.710;2022-11-20T16:57:29;2.60;;;1.40;;
68025;SDS011;54819;48.030;14.710;2022-11-20T16:59:59;3.10;;;1.60;;
68025;SDS011;54819;48.030;14.710;2022-11-20T17:02:28;4.30;;;1.50;;
68025;SDS011;54819;48.030;14.710;2022-11-20T17:04:54;3.20;;;1.20;;
68025;SDS011;54819;48.030;14.710;2022-11-20T17:07:21;3.70;;;1.30;;